Ocean Liberty — WDE2762 — position and weather

sailwx.info

Track history (hours):
 
Tides and Currents Weather Stations Pressure Air Temp Water Temp Dewpoint Dewpoint Depression Visibility Wind Speed Wind Dir Waves Ship Positions

Ocean Liberty

Owner: Marine Spill Response Corporation, Long Beach, CA. More information available from US FCC via Universal Licensing System and Coast Guard Vessel Documentation Center.

Last reported at 2016-Apr-29 01:32 UTC. Time now 2016-Apr-29 01:58 UTC.
Position N 33°46' W 118°13'.

; draft 2.9 m.

Type: Pollution control. MMSI: 367329330.

Date/timePositionNaut miles runAvg speedWind from/ knotsBaromVisibWave heightAir tempDewpointWater temp
2016-Apr-29 01:32N 33°46' W 118°13'0 0.0
2016-Apr-29 00:32N 33°46' W 118°13'0 0.0
2016-Apr-28 23:32N 33°46' W 118°13'2 2.2
2016-Apr-28 22:34N 33°44' W 118°13'3 2.3
2016-Apr-28 21:26N 33°44' W 118°16'0 0.0
2016-Apr-28 20:32N 33°44' W 118°16'4 4.1
2016-Apr-28 19:33N 33°44' W 118°11'2 1.9
2016-Apr-28 18:34N 33°44' W 118°09'0 0.1
2016-Apr-28 17:33N 33°44' W 118°09'0 0.3
2016-Apr-28 16:27N 33°44' W 118°09'0 0.3
2016-Apr-28 15:33N 33°44' W 118°10'1 1.0
2016-Apr-28 14:33N 33°44' W 118°11'3 3.0
2016-Apr-28 13:32N 33°46' W 118°13'0 0.0
2016-Apr-28 12:32N 33°46' W 118°13'0 0.0
2016-Apr-28 11:32N 33°46' W 118°13'0 0.0
2016-Apr-28 10:32N 33°46' W 118°13'0 0.0
2016-Apr-28 09:32N 33°46' W 118°13'0 0.0
2016-Apr-28 08:32N 33°46' W 118°13'0 0.0
2016-Apr-28 07:32N 33°46' W 118°13'0 0.0
2016-Apr-28 06:32N 33°46' W 118°13'0 0.0
2016-Apr-28 05:32N 33°46' W 118°13'0 0.0
2016-Apr-28 04:32N 33°46' W 118°13'0 0.0
2016-Apr-28 03:32N 33°46' W 118°13'0 0.0
2016-Apr-28 02:32N 33°46' W 118°13'0 0.0
2016-Apr-28 01:32N 33°46' W 118°13'0 0.0
2016-Apr-28 00:32N 33°46' W 118°13'0 0.0
2016-Apr-27 23:32N 33°46' W 118°13'0 0.0
2016-Apr-27 22:31N 33°46' W 118°13'0 0.0
2016-Apr-27 21:31N 33°46' W 118°13'0 0.0
2016-Apr-27 20:31N 33°46' W 118°13'0 0.0
2016-Apr-27 19:31N 33°46' W 118°13'0 0.0
2016-Apr-27 18:31N 33°46' W 118°13'0 0.0
2016-Apr-27 17:28N 33°46' W 118°13'0 0.0
2016-Apr-27 16:28N 33°46' W 118°13'0 0.0
2016-Apr-27 15:31N 33°46' W 118°13'0 0.0
2016-Apr-27 14:28N 33°46' W 118°13'0 0.0
2016-Apr-27 13:31N 33°46' W 118°13'0 0.0
2016-Apr-27 12:31N 33°46' W 118°13'0 0.0
2016-Apr-27 11:31N 33°46' W 118°13'0 0.0
2016-Apr-27 10:31N 33°46' W 118°13'0 0.0
2016-Apr-27 09:31N 33°46' W 118°13'0 0.0
2016-Apr-27 08:31N 33°46' W 118°13'0 0.0
2016-Apr-27 07:31N 33°46' W 118°13'0 0.0
2016-Apr-27 06:31N 33°46' W 118°13'0 0.0
2016-Apr-27 05:31N 33°46' W 118°13'0 0.0
2016-Apr-27 04:31N 33°46' W 118°13'0 0.0
2016-Apr-27 03:31N 33°46' W 118°13'0 0.0
2016-Apr-27 02:31N 33°46' W 118°13'0 0.0
2016-Apr-27 01:31N 33°46' W 118°13'0 0.0
2016-Apr-27 00:25N 33°46' W 118°13'0 0.0
2016-Apr-26 23:31N 33°46' W 118°13'0 0.0
2016-Apr-26 22:31N 33°46' W 118°13'0 0.0
2016-Apr-26 21:31N 33°46' W 118°13'0 0.0
2016-Apr-26 20:31N 33°46' W 118°13'0 0.0
2016-Apr-26 19:31N 33°46' W 118°13'0 0.0
2016-Apr-26 18:31N 33°46' W 118°13'0 0.0
2016-Apr-26 17:31N 33°46' W 118°13'0 0.0
2016-Apr-26 16:31N 33°46' W 118°13'0 0.0
2016-Apr-26 15:31N 33°46' W 118°13'0 0.0
2016-Apr-26 14:31N 33°46' W 118°13'0 0.0
2016-Apr-26 13:31N 33°46' W 118°13'0 0.0
2016-Apr-26 12:31N 33°46' W 118°13'0 0.0
2016-Apr-26 10:07N 33°46' W 118°13'0 0.0
2016-Apr-26 09:24N 33°46' W 118°13'0 0.0
2016-Apr-26 08:33N 33°46' W 118°13'0 0.0
2016-Apr-26 07:30N 33°46' W 118°13'0 0.0
2016-Apr-26 06:15N 33°46' W 118°13'0 0.0
2016-Apr-26 05:33N 33°46' W 118°13'0 0.0
2016-Apr-26 04:24N 33°46' W 118°13'0 0.0
2016-Apr-26 03:33N 33°46' W 118°13'0 0.0
2016-Apr-26 02:30N 33°46' W 118°13'0 0.0
2016-Apr-25 23:16N 33°46' W 118°13'0 0.0
2016-Apr-25 22:31N 33°46' W 118°13'0 0.0
2016-Apr-25 21:33N 33°46' W 118°13'0 0.0
2016-Apr-25 20:33N 33°46' W 118°13'0 0.0
2016-Apr-25 19:33N 33°46' W 118°13'0 0.0
2016-Apr-25 18:27N 33°46' W 118°13'0 0.0
2016-Apr-25 17:33N 33°46' W 118°13'0 0.0
2016-Apr-25 16:33N 33°46' W 118°13'0 0.0
2016-Apr-25 15:30N 33°46' W 118°13'0 0.0
2016-Apr-25 14:33N 33°46' W 118°13'0 0.0
2016-Apr-25 13:33N 33°46' W 118°13'0 0.0
2016-Apr-25 12:33N 33°46' W 118°13'0 0.0
2016-Apr-25 11:33N 33°46' W 118°13'0 0.0
2016-Apr-25 10:33N 33°46' W 118°13'0 0.0
2016-Apr-25 09:33N 33°46' W 118°13'0 0.0
2016-Apr-25 08:33N 33°46' W 118°13'0 0.0
2016-Apr-25 07:33N 33°46' W 118°13'0 0.0
2016-Apr-25 06:33N 33°46' W 118°13'0 0.0
2016-Apr-25 05:33N 33°46' W 118°13'0 0.0
2016-Apr-25 04:33N 33°46' W 118°13'0 0.0
2016-Apr-25 03:33N 33°46' W 118°13'0 0.0
2016-Apr-25 02:33N 33°46' W 118°13'0 0.0
2016-Apr-25 01:33N 33°46' W 118°13'0 0.0
2016-Apr-25 00:33N 33°46' W 118°13'0 0.0
2016-Apr-24 23:33N 33°46' W 118°13'0 0.0
2016-Apr-24 22:33N 33°46' W 118°13'0 0.0
2016-Apr-24 21:33N 33°46' W 118°13'0 0.0
2016-Apr-24 20:33N 33°46' W 118°13'0 0.0
2016-Apr-24 19:29N 33°46' W 118°13'0 0.0
2016-Apr-24 18:32N 33°46' W 118°13'0 0.0
2016-Apr-24 17:32N 33°46' W 118°13'0 0.0
2016-Apr-24 16:32N 33°46' W 118°13'0 0.0
2016-Apr-24 15:29N 33°46' W 118°13'0 0.0
2016-Apr-24 14:32N 33°46' W 118°13'0 0.0
2016-Apr-24 13:29N 33°46' W 118°13'0 0.0
2016-Apr-24 12:29N 33°46' W 118°13'0 0.0
2016-Apr-23 19:32N 33°46' W 118°13'0 0.0
2016-Apr-21 21:07N 33°46' W 118°13'0 0.0
2016-Apr-21 18:19N 33°46' W 118°13'1 1.5
2016-Apr-21 17:33N 33°45' W 118°13'5 4.8
2016-Apr-21 16:33N 33°42' W 118°08'2 2.3
2016-Apr-21 15:30N 33°41' W 118°06'7 7.4
2016-Apr-21 14:32N 33°45' W 118°13'1 1.0
2016-Apr-21 13:06N 33°46' W 118°13'0 0.0
2016-Apr-21 11:29N 33°46' W 118°13'0 0.0
2016-Apr-21 08:17N 33°46' W 118°13'0 0.0
2016-Apr-21 07:29N 33°46' W 118°13'0 0.0
2016-Apr-21 01:08N 33°46' W 118°13'0 0.0
2016-Apr-20 23:17N 33°46' W 118°13'0 0.0
2016-Apr-20 21:23N 33°46' W 118°13'0 0.0
2016-Apr-20 20:32N 33°46' W 118°13'0 0.0
2016-Apr-20 19:32N 33°46' W 118°13'0 0.0
2016-Apr-20 18:29N 33°46' W 118°13'0 0.0
2016-Apr-20 17:32N 33°46' W 118°13'0 0.0
2016-Apr-20 16:32N 33°46' W 118°13'0 0.0
2016-Apr-20 15:32N 33°46' W 118°13'0 0.0
2016-Apr-20 14:32N 33°46' W 118°13'0 0.0
2016-Apr-20 13:32N 33°46' W 118°13'0 0.0
2016-Apr-20 12:32N 33°46' W 118°13'0 0.0
2016-Apr-20 11:32N 33°46' W 118°13'0 0.0
2016-Apr-20 10:32N 33°46' W 118°13'0 0.0
2016-Apr-20 09:31N 33°46' W 118°13'0 0.0
2016-Apr-20 08:31N 33°46' W 118°13'0 0.0
2016-Apr-20 07:31N 33°46' W 118°13'0 0.0
2016-Apr-20 06:31N 33°46' W 118°13'0 0.0
2016-Apr-20 05:31N 33°46' W 118°13'0 0.0
2016-Apr-20 04:31N 33°46' W 118°13'0 0.0
2016-Apr-20 03:31N 33°46' W 118°13'0 0.0
2016-Apr-20 02:31N 33°46' W 118°13'0 0.0
2016-Apr-20 01:31N 33°46' W 118°13'0 0.0
2016-Apr-20 00:31N 33°46' W 118°13'0 0.0
2016-Apr-19 23:31N 33°46' W 118°13'0 0.0
2016-Apr-19 22:31N 33°46' W 118°13'0 0.0
2016-Apr-19 21:31N 33°46' W 118°13'0 0.0
2016-Apr-19 20:31N 33°46' W 118°13'0 0.0
2016-Apr-19 19:31N 33°46' W 118°13'0 0.0
2016-Apr-19 18:31N 33°46' W 118°13'0 0.0
2016-Apr-19 17:31N 33°46' W 118°13'0 0.0
2016-Apr-19 16:31N 33°46' W 118°13'0 0.0
2016-Apr-19 15:31N 33°46' W 118°13'0 0.0
2016-Apr-19 14:31N 33°46' W 118°13'0 0.0
2016-Apr-19 13:31N 33°46' W 118°13'0 0.0
2016-Apr-19 12:31N 33°46' W 118°13'0 0.0
2016-Apr-19 11:31N 33°46' W 118°13'0 0.0
2016-Apr-19 10:31N 33°46' W 118°13'0 0.0
2016-Apr-19 09:31N 33°46' W 118°13'0 0.0
2016-Apr-19 08:25N 33°46' W 118°13'0 0.0
2016-Apr-19 07:31N 33°46' W 118°13'0 0.0
2016-Apr-19 06:31N 33°46' W 118°13'0 0.0
2016-Apr-19 05:31N 33°46' W 118°13'0 0.0
2016-Apr-19 04:31N 33°46' W 118°13'0 0.0
2016-Apr-19 03:31N 33°46' W 118°13'0 0.0
2016-Apr-19 02:31N 33°46' W 118°13'  
Track history (hours):
 
Tides and Currents Weather Stations Pressure Air Temp Water Temp Dewpoint Dewpoint Depression Visibility Wind Speed Wind Dir Waves Ship Positions

Ocean Liberty

Owner: Marine Spill Response Corporation, Long Beach, CA. More information available from US FCC via Universal Licensing System and Coast Guard Vessel Documentation Center.

Last reported at 2016-Apr-29 01:32 UTC. Time now 2016-Apr-29 01:58 UTC.
Position N 33°46' W 118°13'.

; draft 2.9 m.

Type: Pollution control. MMSI: 367329330.

Date/timePositionNaut miles runAvg speedWind from/ knotsBaromVisibWave heightAir tempDewpointWater temp
2016-Apr-29 01:32N 33°46' W 118°13'0 0.0
2016-Apr-29 00:32N 33°46' W 118°13'0 0.0
2016-Apr-28 23:32N 33°46' W 118°13'2 2.2
2016-Apr-28 22:34N 33°44' W 118°13'3 2.3
2016-Apr-28 21:26N 33°44' W 118°16'0 0.0
2016-Apr-28 20:32N 33°44' W 118°16'4 4.1
2016-Apr-28 19:33N 33°44' W 118°11'2 1.9
2016-Apr-28 18:34N 33°44' W 118°09'0 0.1
2016-Apr-28 17:33N 33°44' W 118°09'0 0.3
2016-Apr-28 16:27N 33°44' W 118°09'0 0.3
2016-Apr-28 15:33N 33°44' W 118°10'1 1.0
2016-Apr-28 14:33N 33°44' W 118°11'3 3.0
2016-Apr-28 13:32N 33°46' W 118°13'0 0.0
2016-Apr-28 12:32N 33°46' W 118°13'0 0.0
2016-Apr-28 11:32N 33°46' W 118°13'0 0.0
2016-Apr-28 10:32N 33°46' W 118°13'0 0.0
2016-Apr-28 09:32N 33°46' W 118°13'0 0.0
2016-Apr-28 08:32N 33°46' W 118°13'0 0.0
2016-Apr-28 07:32N 33°46' W 118°13'0 0.0
2016-Apr-28 06:32N 33°46' W 118°13'0 0.0
2016-Apr-28 05:32N 33°46' W 118°13'0 0.0
2016-Apr-28 04:32N 33°46' W 118°13'0 0.0
2016-Apr-28 03:32N 33°46' W 118°13'0 0.0
2016-Apr-28 02:32N 33°46' W 118°13'0 0.0
2016-Apr-28 01:32N 33°46' W 118°13'0 0.0
2016-Apr-28 00:32N 33°46' W 118°13'0 0.0
2016-Apr-27 23:32N 33°46' W 118°13'0 0.0
2016-Apr-27 22:31N 33°46' W 118°13'0 0.0
2016-Apr-27 21:31N 33°46' W 118°13'0 0.0
2016-Apr-27 20:31N 33°46' W 118°13'0 0.0
2016-Apr-27 19:31N 33°46' W 118°13'0 0.0
2016-Apr-27 18:31N 33°46' W 118°13'0 0.0
2016-Apr-27 17:28N 33°46' W 118°13'0 0.0
2016-Apr-27 16:28N 33°46' W 118°13'0 0.0
2016-Apr-27 15:31N 33°46' W 118°13'0 0.0
2016-Apr-27 14:28N 33°46' W 118°13'0 0.0
2016-Apr-27 13:31N 33°46' W 118°13'0 0.0
2016-Apr-27 12:31N 33°46' W 118°13'0 0.0
2016-Apr-27 11:31N 33°46' W 118°13'0 0.0
2016-Apr-27 10:31N 33°46' W 118°13'0 0.0
2016-Apr-27 09:31N 33°46' W 118°13'0 0.0
2016-Apr-27 08:31N 33°46' W 118°13'0 0.0
2016-Apr-27 07:31N 33°46' W 118°13'0 0.0
2016-Apr-27 06:31N 33°46' W 118°13'0 0.0
2016-Apr-27 05:31N 33°46' W 118°13'0 0.0
2016-Apr-27 04:31N 33°46' W 118°13'0 0.0
2016-Apr-27 03:31N 33°46' W 118°13'0 0.0
2016-Apr-27 02:31N 33°46' W 118°13'0 0.0
2016-Apr-27 01:31N 33°46' W 118°13'0 0.0
2016-Apr-27 00:25N 33°46' W 118°13'0 0.0
2016-Apr-26 23:31N 33°46' W 118°13'0 0.0
2016-Apr-26 22:31N 33°46' W 118°13'0 0.0
2016-Apr-26 21:31N 33°46' W 118°13'0 0.0
2016-Apr-26 20:31N 33°46' W 118°13'0 0.0
2016-Apr-26 19:31N 33°46' W 118°13'0 0.0
2016-Apr-26 18:31N 33°46' W 118°13'0 0.0
2016-Apr-26 17:31N 33°46' W 118°13'0 0.0
2016-Apr-26 16:31N 33°46' W 118°13'0 0.0
2016-Apr-26 15:31N 33°46' W 118°13'0 0.0
2016-Apr-26 14:31N 33°46' W 118°13'0 0.0
2016-Apr-26 13:31N 33°46' W 118°13'0 0.0
2016-Apr-26 12:31N 33°46' W 118°13'0 0.0
2016-Apr-26 10:07N 33°46' W 118°13'0 0.0
2016-Apr-26 09:24N 33°46' W 118°13'0 0.0
2016-Apr-26 08:33N 33°46' W 118°13'0 0.0
2016-Apr-26 07:30N 33°46' W 118°13'0 0.0
2016-Apr-26 06:15N 33°46' W 118°13'0 0.0
2016-Apr-26 05:33N 33°46' W 118°13'0 0.0
2016-Apr-26 04:24N 33°46' W 118°13'0 0.0
2016-Apr-26 03:33N 33°46' W 118°13'0 0.0
2016-Apr-26 02:30N 33°46' W 118°13'0 0.0
2016-Apr-25 23:16N 33°46' W 118°13'0 0.0
2016-Apr-25 22:31N 33°46' W 118°13'0 0.0
2016-Apr-25 21:33N 33°46' W 118°13'0 0.0
2016-Apr-25 20:33N 33°46' W 118°13'0 0.0
2016-Apr-25 19:33N 33°46' W 118°13'0 0.0
2016-Apr-25 18:27N 33°46' W 118°13'0 0.0
2016-Apr-25 17:33N 33°46' W 118°13'0 0.0
2016-Apr-25 16:33N 33°46' W 118°13'0 0.0
2016-Apr-25 15:30N 33°46' W 118°13'0 0.0
2016-Apr-25 14:33N 33°46' W 118°13'0 0.0
2016-Apr-25 13:33N 33°46' W 118°13'0 0.0
2016-Apr-25 12:33N 33°46' W 118°13'0 0.0
2016-Apr-25 11:33N 33°46' W 118°13'0 0.0
2016-Apr-25 10:33N 33°46' W 118°13'0 0.0
2016-Apr-25 09:33N 33°46' W 118°13'0 0.0
2016-Apr-25 08:33N 33°46' W 118°13'0 0.0
2016-Apr-25 07:33N 33°46' W 118°13'0 0.0
2016-Apr-25 06:33N 33°46' W 118°13'0 0.0
2016-Apr-25 05:33N 33°46' W 118°13'0 0.0
2016-Apr-25 04:33N 33°46' W 118°13'0 0.0
2016-Apr-25 03:33N 33°46' W 118°13'0 0.0
2016-Apr-25 02:33N 33°46' W 118°13'0 0.0
2016-Apr-25 01:33N 33°46' W 118°13'0 0.0
2016-Apr-25 00:33N 33°46' W 118°13'0 0.0
2016-Apr-24 23:33N 33°46' W 118°13'0 0.0
2016-Apr-24 22:33N 33°46' W 118°13'0 0.0
2016-Apr-24 21:33N 33°46' W 118°13'0 0.0
2016-Apr-24 20:33N 33°46' W 118°13'0 0.0
2016-Apr-24 19:29N 33°46' W 118°13'0 0.0
2016-Apr-24 18:32N 33°46' W 118°13'0 0.0
2016-Apr-24 17:32N 33°46' W 118°13'0 0.0
2016-Apr-24 16:32N 33°46' W 118°13'0 0.0
2016-Apr-24 15:29N 33°46' W 118°13'0 0.0
2016-Apr-24 14:32N 33°46' W 118°13'0 0.0
2016-Apr-24 13:29N 33°46' W 118°13'0 0.0
2016-Apr-24 12:29N 33°46' W 118°13'0 0.0
2016-Apr-23 19:32N 33°46' W 118°13'0 0.0
2016-Apr-21 21:07N 33°46' W 118°13'0 0.0
2016-Apr-21 18:19N 33°46' W 118°13'1 1.5
2016-Apr-21 17:33N 33°45' W 118°13'5 4.8
2016-Apr-21 16:33N 33°42' W 118°08'2 2.3
2016-Apr-21 15:30N 33°41' W 118°06'7 7.4
2016-Apr-21 14:32N 33°45' W 118°13'1 1.0
2016-Apr-21 13:06N 33°46' W 118°13'0 0.0
2016-Apr-21 11:29N 33°46' W 118°13'0 0.0
2016-Apr-21 08:17N 33°46' W 118°13'0 0.0
2016-Apr-21 07:29N 33°46' W 118°13'0 0.0
2016-Apr-21 01:08N 33°46' W 118°13'0 0.0
2016-Apr-20 23:17N 33°46' W 118°13'0 0.0
2016-Apr-20 21:23N 33°46' W 118°13'0 0.0
2016-Apr-20 20:32N 33°46' W 118°13'0 0.0
2016-Apr-20 19:32N 33°46' W 118°13'0 0.0
2016-Apr-20 18:29N 33°46' W 118°13'0 0.0
2016-Apr-20 17:32N 33°46' W 118°13'0 0.0
2016-Apr-20 16:32N 33°46' W 118°13'0 0.0
2016-Apr-20 15:32N 33°46' W 118°13'0 0.0
2016-Apr-20 14:32N 33°46' W 118°13'0 0.0
2016-Apr-20 13:32N 33°46' W 118°13'0 0.0
2016-Apr-20 12:32N 33°46' W 118°13'0 0.0
2016-Apr-20 11:32N 33°46' W 118°13'0 0.0
2016-Apr-20 10:32N 33°46' W 118°13'0 0.0
2016-Apr-20 09:31N 33°46' W 118°13'0 0.0
2016-Apr-20 08:31N 33°46' W 118°13'0 0.0
2016-Apr-20 07:31N 33°46' W 118°13'0 0.0
2016-Apr-20 06:31N 33°46' W 118°13'0 0.0
2016-Apr-20 05:31N 33°46' W 118°13'0 0.0
2016-Apr-20 04:31N 33°46' W 118°13'0 0.0
2016-Apr-20 03:31N 33°46' W 118°13'0 0.0
2016-Apr-20 02:31N 33°46' W 118°13'0 0.0
2016-Apr-20 01:31N 33°46' W 118°13'0 0.0
2016-Apr-20 00:31N 33°46' W 118°13'0 0.0
2016-Apr-19 23:31N 33°46' W 118°13'0 0.0
2016-Apr-19 22:31N 33°46' W 118°13'0 0.0
2016-Apr-19 21:31N 33°46' W 118°13'0 0.0
2016-Apr-19 20:31N 33°46' W 118°13'0 0.0
2016-Apr-19 19:31N 33°46' W 118°13'0 0.0
2016-Apr-19 18:31N 33°46' W 118°13'0 0.0
2016-Apr-19 17:31N 33°46' W 118°13'0 0.0
2016-Apr-19 16:31N 33°46' W 118°13'0 0.0
2016-Apr-19 15:31N 33°46' W 118°13'0 0.0
2016-Apr-19 14:31N 33°46' W 118°13'0 0.0
2016-Apr-19 13:31N 33°46' W 118°13'0 0.0
2016-Apr-19 12:31N 33°46' W 118°13'0 0.0
2016-Apr-19 11:31N 33°46' W 118°13'0 0.0
2016-Apr-19 10:31N 33°46' W 118°13'0 0.0
2016-Apr-19 09:31N 33°46' W 118°13'0 0.0
2016-Apr-19 08:25N 33°46' W 118°13'0 0.0
2016-Apr-19 07:31N 33°46' W 118°13'0 0.0
2016-Apr-19 06:31N 33°46' W 118°13'0 0.0
2016-Apr-19 05:31N 33°46' W 118°13'0 0.0
2016-Apr-19 04:31N 33°46' W 118°13'0 0.0
2016-Apr-19 03:31N 33°46' W 118°13'0 0.0
2016-Apr-19 02:31N 33°46' W 118°13'  

Dump ship's entire track history